createdAt,value
2022-08-09T00:18:05.710Z,98888.25
2022-08-09T00:37:52.539Z,98887.44
2022-08-09T00:57:59.413Z,98901.09
2022-08-09T01:18:02.298Z,98896.84
2022-08-09T01:38:09.707Z,98908.50
2022-08-09T01:58:13.540Z,98905.00
2022-08-09T02:18:16.607Z,98903.37
2022-08-09T02:38:21.815Z,98915.72
2022-08-09T02:58:36.039Z,98913.31
2022-08-09T03:18:42.154Z,98913.75
2022-08-09T03:38:44.943Z,98931.78
2022-08-09T03:58:47.446Z,98936.81
2022-08-09T04:18:52.797Z,98923.78
2022-08-09T04:38:56.506Z,98933.31
2022-08-09T04:58:59.040Z,98927.50
2022-08-09T05:19:02.940Z,98938.16
2022-08-09T05:39:05.718Z,98952.06
2022-08-09T05:59:11.821Z,98947.84
2022-08-09T06:19:17.697Z,98953.16
2022-08-09T06:39:24.147Z,98962.28
2022-08-09T07:00:50.317Z,98969.66
2022-08-09T07:20:05.306Z,98964.19
2022-08-09T07:40:13.079Z,98981.94
2022-08-09T08:00:20.509Z,98986.87
2022-08-09T08:20:38.069Z,98998.06
2022-08-09T08:40:45.442Z,99003.47
2022-08-09T09:00:54.452Z,99009.31
2022-08-09T09:20:59.506Z,99016.97
2022-08-09T09:41:02.340Z,99014.12
2022-08-09T10:01:07.039Z,99005.94
2022-08-09T10:21:29.555Z,99000.94
2022-08-09T10:41:32.253Z,98982.00
2022-08-09T11:03:18.429Z,98978.66
2022-08-09T11:22:10.226Z,98999.84
2022-08-09T11:42:21.049Z,98977.16
2022-08-09T12:02:51.110Z,98961.88
2022-08-09T12:22:46.531Z,98955.16
2022-08-09T12:42:52.953Z,98953.09
2022-08-09T13:02:55.623Z,98970.94
2022-08-09T13:23:04.750Z,98951.81
2022-08-09T13:43:19.302Z,98939.88
2022-08-09T14:04:02.878Z,98953.03
2022-08-09T14:23:55.301Z,98948.72
2022-08-09T14:43:59.120Z,98959.84
2022-08-09T15:04:05.529Z,98953.75
2022-08-09T15:24:15.329Z,98940.72
2022-08-09T15:44:23.002Z,98943.88
2022-08-09T16:04:25.940Z,98958.44
2022-08-09T16:24:34.036Z,98950.41
2022-08-09T16:44:36.988Z,98941.34
2022-08-09T17:04:39.738Z,98948.38
2022-08-09T17:24:47.825Z,98956.37
2022-08-09T17:44:58.181Z,98966.56
2022-08-09T18:05:01.111Z,98971.94
2022-08-09T18:25:04.063Z,98990.69
2022-08-09T18:45:08.936Z,99017.50
2022-08-09T19:05:41.323Z,99030.44
2022-08-09T19:26:02.326Z,99032.16
2022-08-09T19:46:14.624Z,99035.50
2022-08-09T20:06:23.056Z,99043.47
2022-08-09T20:26:26.870Z,99044.97
2022-08-09T20:46:33.912Z,99048.16
2022-08-09T21:06:45.415Z,99048.84
2022-08-09T21:26:48.039Z,99060.50
2022-08-09T21:46:51.114Z,99076.41
2022-08-09T22:07:01.762Z,99062.87
2022-08-09T22:27:04.750Z,99069.41
2022-08-09T22:48:15.790Z,99065.06
2022-08-09T23:08:22.826Z,99057.91
2022-08-09T23:28:15.406Z,99058.28
2022-08-09T23:48:19.344Z,99046.41
